Terminal Aerodrome Forecast
Issued by NWS

Home | Current Version | Previous Version | Graphics & Text | Print | Product List | Glossary On
Versions: 1 2 3 4 5 6 7 8 9 10 11 12 13 14 15 16 17 18 19 20 21 22 23 24 25 26 27 28 29 30 31 32 33 34 35 36
183
FTUS43 KGRB 181735
TAFRHI
TAF
KRHI 181735Z 1818/1918 23006KT P6SM SCT025 BKN060
     FM182000 26006KT P6SM -TSRA SCT025 BKN035CB
      TEMPO 1820/1823 2SM TSRA BKN025 OVC035CB
     FM182300 31005KT P6SM SCT015 BKN030
     FM190200 33004KT P6SM SCT030 BKN060
     FM190600 34003KT P6SM SCT150=

USA.gov is the U.S. government's official web portal to all federal, state and local government web resources and services.